createdAt,value
2023-03-17T00:00:57.860Z,5.32
2023-03-17T00:01:59.593Z,5.23
2023-03-17T00:03:02.141Z,5.30
2023-03-17T00:04:04.104Z,5.25
2023-03-17T00:05:17.713Z,5.26
2023-03-17T00:06:29.438Z,5.25
2023-03-17T00:07:32.075Z,5.18
2023-03-17T00:08:36.069Z,5.23
2023-03-17T00:09:38.437Z,5.27
2023-03-17T00:10:40.148Z,5.19
2023-03-17T00:11:43.656Z,5.14
2023-03-17T00:12:46.210Z,5.16
2023-03-17T00:13:49.087Z,5.19
2023-03-17T00:14:50.929Z,5.17
2023-03-17T00:16:01.290Z,5.19
2023-03-17T00:17:03.107Z,5.04
2023-03-17T00:18:05.151Z,5.09
2023-03-17T00:19:07.372Z,5.12
2023-03-17T00:20:14.846Z,5.08
2023-03-17T00:21:43.077Z,5.14
2023-03-17T00:22:45.507Z,5.15
2023-03-17T00:23:55.029Z,5.17
2023-03-17T00:24:56.747Z,5.16
2023-03-17T00:25:58.823Z,5.10
2023-03-17T00:27:00.957Z,5.15
2023-03-17T00:28:03.688Z,5.14
2023-03-17T00:29:06.131Z,5.12
2023-03-17T00:30:09.221Z,5.10
2023-03-17T00:31:21.307Z,5.10
2023-03-17T00:32:23.110Z,5.12
2023-03-17T00:33:30.390Z,5.16
2023-03-17T00:34:32.353Z,5.17
2023-03-17T00:35:34.574Z,5.10
2023-03-17T00:36:37.517Z,5.13
2023-03-17T00:37:39.693Z,5.13
2023-03-17T00:38:41.554Z,5.15
2023-03-17T00:39:43.281Z,5.17
2023-03-17T00:42:48.177Z,5.16
2023-03-17T00:43:50.968Z,5.15
2023-03-17T00:44:52.656Z,5.19
2023-03-17T00:45:55.199Z,5.17
2023-03-17T00:46:57.979Z,5.17
2023-03-17T00:48:00.648Z,5.17
2023-03-17T00:49:23.693Z,5.17
2023-03-17T00:50:28.425Z,5.22
2023-03-17T00:51:30.346Z,5.18
2023-03-17T00:52:32.618Z,4.93
2023-03-17T00:53:34.480Z,5.21
2023-03-17T00:54:36.801Z,5.24
2023-03-17T00:55:38.747Z,5.22
2023-03-17T00:56:42.412Z,5.17
2023-03-17T00:57:44.333Z,5.13
2023-03-17T00:58:47.727Z,5.22
2023-03-17T00:59:49.525Z,5.24
2023-03-17T01:00:52.300Z,5.29
2023-03-17T01:01:54.522Z,5.34
2023-03-17T01:02:57.372Z,5.33
2023-03-17T01:03:59.100Z,5.24
2023-03-17T01:05:06.374Z,5.27
2023-03-17T01:06:12.773Z,5.22
2023-03-17T01:07:14.715Z,5.13
2023-03-17T01:08:16.988Z,5.13
2023-03-17T01:09:20.473Z,5.20
2023-03-17T01:10:26.131Z,5.10
2023-03-17T01:11:27.892Z,5.23
2023-03-17T01:12:29.667Z,5.25
2023-03-17T01:13:31.405Z,5.22
2023-03-17T01:14:33.098Z,5.24
2023-03-17T01:15:34.869Z,5.25
2023-03-17T01:16:36.969Z,5.23
2023-03-17T01:17:39.570Z,5.25
2023-03-17T01:18:41.518Z,5.17
2023-03-17T01:19:43.387Z,5.21
2023-03-17T01:20:45.663Z,5.10
2023-03-17T01:21:48.181Z,5.14
2023-03-17T01:22:50.948Z,5.10
2023-03-17T01:23:53.637Z,5.14
2023-03-17T01:24:55.331Z,5.11
2023-03-17T01:25:57.435Z,4.98
2023-03-17T01:26:59.165Z,5.08
2023-03-17T01:28:00.972Z,5.14
2023-03-17T01:29:02.739Z,5.18
2023-03-17T01:30:07.295Z,5.19
2023-03-17T01:31:09.678Z,5.12
2023-03-17T01:32:11.851Z,5.13
2023-03-17T01:33:14.780Z,5.12
2023-03-17T01:34:16.646Z,5.23
2023-03-17T01:35:20.399Z,5.27
2023-03-17T01:36:22.135Z,5.27
2023-03-17T01:37:23.986Z,5.20
2023-03-17T01:38:25.806Z,5.23
2023-03-17T01:39:28.434Z,5.26
2023-03-17T01:40:42.557Z,5.20
2023-03-17T01:41:45.697Z,5.19
2023-03-17T01:43:08.609Z,5.21
2023-03-17T01:44:15.881Z,5.16
2023-03-17T01:45:55.019Z,5.22
2023-03-17T01:46:56.812Z,5.15
2023-03-17T01:47:59.301Z,5.10
2023-03-17T01:49:21.409Z,5.11
2023-03-17T01:50:23.764Z,5.15
2023-03-17T01:51:34.397Z,5.20
2023-03-17T01:52:39.802Z,5.24
2023-03-17T01:53:42.181Z,5.21
2023-03-17T01:54:50.476Z,5.21
2023-03-17T01:55:53.329Z,5.27
2023-03-17T01:56:58.904Z,5.26
2023-03-17T01:58:01.046Z,5.23
2023-03-17T01:59:07.621Z,5.20
2023-03-17T02:00:12.554Z,5.25
2023-03-17T02:01:14.329Z,5.26
2023-03-17T02:02:22.747Z,5.28
2023-03-17T02:03:24.482Z,5.22
2023-03-17T02:04:27.300Z,5.22
2023-03-17T02:05:31.165Z,5.13
2023-03-17T02:06:33.603Z,5.25
2023-03-17T02:07:35.793Z,5.31
2023-03-17T02:08:37.828Z,5.31
2023-03-17T02:09:40.093Z,5.28
2023-03-17T02:10:42.607Z,5.31
2023-03-17T02:11:45.643Z,5.28
2023-03-17T02:12:53.215Z,5.29
2023-03-17T02:13:54.974Z,5.29
2023-03-17T02:14:57.692Z,5.31
2023-03-17T02:15:59.490Z,5.32
2023-03-17T02:17:01.688Z,5.25
2023-03-17T02:18:03.955Z,5.17
2023-03-17T02:19:05.669Z,5.30
2023-03-17T02:20:16.291Z,5.30
2023-03-17T02:21:31.426Z,5.34
2023-03-17T02:22:33.566Z,5.32
2023-03-17T02:23:35.579Z,5.35
2023-03-17T02:24:56.707Z,5.35
2023-03-17T02:25:58.475Z,5.43
2023-03-17T02:27:20.227Z,5.43
2023-03-17T02:28:30.105Z,5.40
2023-03-17T02:29:35.483Z,5.39
2023-03-17T02:30:37.700Z,5.38
2023-03-17T02:31:39.742Z,5.44
2023-03-17T02:32:41.523Z,5.33
2023-03-17T02:33:43.704Z,5.34
2023-03-17T02:34:49.044Z,5.42
2023-03-17T02:35:51.278Z,5.44
2023-03-17T02:36:53.032Z,5.43
2023-03-17T02:37:54.748Z,5.44
2023-03-17T02:38:57.655Z,5.47
2023-03-17T02:40:01.308Z,5.46
2023-03-17T02:41:03.597Z,5.48
2023-03-17T02:42:06.133Z,5.52
2023-03-17T02:43:07.835Z,5.50
2023-03-17T02:44:09.893Z,5.46
2023-03-17T02:45:13.701Z,5.50
2023-03-17T02:46:15.483Z,5.47
2023-03-17T02:47:17.472Z,5.32
2023-03-17T02:48:19.362Z,5.36
2023-03-17T02:49:22.583Z,5.35
2023-03-17T02:50:29.042Z,5.45
2023-03-17T02:51:31.149Z,5.48
2023-03-17T02:52:33.254Z,5.44
2023-03-17T02:53:35.284Z,5.48
2023-03-17T02:54:36.995Z,5.50
2023-03-17T02:55:38.713Z,5.55
2023-03-17T02:56:41.020Z,5.52
2023-03-17T02:57:43.137Z,5.53
2023-03-17T02:58:45.064Z,5.48
2023-03-17T02:59:46.842Z,5.60
2023-03-17T03:00:49.949Z,5.62
2023-03-17T03:01:51.981Z,5.56
2023-03-17T03:02:53.822Z,5.62
2023-03-17T03:03:55.658Z,5.69
2023-03-17T03:04:57.468Z,5.54
2023-03-17T03:06:00.436Z,5.69
2023-03-17T03:07:04.652Z,5.71
2023-03-17T03:08:06.513Z,5.69
2023-03-17T03:09:09.396Z,5.72
2023-03-17T03:10:11.600Z,5.73
2023-03-17T03:11:13.388Z,5.74
2023-03-17T03:12:15.248Z,5.67
2023-03-17T03:13:17.495Z,5.73
2023-03-17T03:14:19.190Z,5.74
2023-03-17T03:15:21.042Z,5.75
2023-03-17T03:16:23.005Z,5.81
2023-03-17T03:17:24.726Z,5.70
2023-03-17T03:18:27.961Z,5.71
2023-03-17T03:19:29.711Z,5.80
2023-03-17T03:20:31.678Z,5.82
2023-03-17T03:21:33.921Z,5.75
2023-03-17T03:22:36.138Z,5.80
2023-03-17T03:23:38.081Z,5.72
2023-03-17T03:24:39.877Z,5.82
2023-03-17T03:25:42.760Z,5.72
2023-03-17T03:26:44.507Z,5.78
2023-03-17T03:27:46.282Z,5.76
2023-03-17T03:28:47.999Z,5.75
2023-03-17T03:29:49.754Z,5.76
2023-03-17T03:30:51.844Z,5.85
2023-03-17T03:31:53.700Z,5.85
2023-03-17T03:32:55.548Z,5.81
2023-03-17T03:33:57.415Z,5.84
2023-03-17T03:34:59.113Z,5.83
2023-03-17T03:36:00.889Z,5.87
2023-03-17T03:37:02.704Z,5.86
2023-03-17T03:38:04.429Z,5.91
2023-03-17T03:39:06.143Z,5.91
2023-03-17T03:40:09.189Z,5.97
2023-03-17T03:41:11.331Z,6.00
2023-03-17T03:42:13.103Z,6.00
2023-03-17T03:43:22.855Z,5.95
2023-03-17T03:44:25.574Z,6.00
2023-03-17T03:45:27.691Z,6.01
2023-03-17T03:46:29.507Z,6.04
2023-03-17T03:47:31.343Z,6.09
2023-03-17T03:48:33.562Z,6.08
2023-03-17T03:49:35.455Z,6.08
2023-03-17T03:50:37.534Z,6.07
2023-03-17T03:51:39.479Z,6.12
2023-03-17T03:52:41.231Z,6.12
2023-03-17T03:53:42.928Z,6.11
2023-03-17T03:54:44.705Z,6.05
2023-03-17T03:55:46.851Z,6.09
2023-03-17T03:56:48.541Z,6.04
2023-03-17T03:57:50.507Z,6.10
2023-03-17T03:58:52.205Z,6.11
2023-03-17T03:59:54.044Z,6.01
2023-03-17T04:00:55.885Z,6.07
2023-03-17T04:01:57.664Z,6.00
2023-03-17T04:03:00.740Z,6.03
2023-03-17T04:04:02.443Z,5.99
2023-03-17T04:05:05.769Z,5.99
2023-03-17T04:06:07.611Z,5.96
2023-03-17T04:07:09.657Z,6.10
2023-03-17T04:08:11.756Z,6.12
2023-03-17T04:09:13.705Z,6.07
2023-03-17T04:10:16.464Z,6.11
2023-03-17T04:11:18.392Z,6.11
2023-03-17T04:12:20.390Z,6.07
2023-03-17T04:13:22.354Z,6.14
2023-03-17T04:14:24.160Z,6.13
2023-03-17T04:15:26.442Z,6.10
2023-03-17T04:16:28.426Z,6.05
2023-03-17T04:17:30.244Z,6.01
2023-03-17T04:18:32.194Z,6.03
2023-03-17T04:19:33.894Z,6.00
2023-03-17T04:20:35.769Z,6.10
2023-03-17T04:21:37.932Z,6.08
2023-03-17T04:22:40.101Z,6.06
2023-03-17T04:23:41.793Z,6.01
2023-03-17T04:24:43.549Z,6.08
2023-03-17T04:25:45.273Z,6.14
2023-03-17T04:26:47.556Z,6.11
2023-03-17T04:27:49.253Z,6.18
2023-03-17T04:28:51.236Z,6.20
2023-03-17T04:29:53.139Z,6.22
2023-03-17T04:30:54.843Z,6.20
2023-03-17T04:31:56.655Z,5.98
2023-03-17T04:32:58.546Z,6.17
2023-03-17T04:34:00.351Z,6.18
2023-03-17T04:35:02.219Z,6.18
2023-03-17T04:36:04.685Z,6.22
2023-03-17T04:37:07.291Z,6.02
2023-03-17T04:38:11.820Z,6.01
2023-03-17T04:39:14.398Z,6.12
2023-03-17T04:40:18.546Z,6.09
2023-03-17T04:41:21.342Z,6.09
2023-03-17T04:42:23.088Z,6.04
2023-03-17T04:43:24.837Z,5.97
2023-03-17T04:44:27.287Z,6.09
2023-03-17T04:45:29.032Z,6.09
2023-03-17T04:46:31.463Z,6.14
2023-03-17T04:47:33.794Z,6.15
2023-03-17T04:48:36.163Z,6.07
2023-03-17T04:49:38.003Z,6.13
2023-03-17T04:50:39.814Z,6.14
2023-03-17T04:51:42.177Z,6.14
2023-03-17T04:52:43.892Z,6.10
2023-03-17T04:53:46.254Z,6.18
2023-03-17T04:54:48.019Z,6.16
2023-03-17T04:55:49.768Z,6.14
2023-03-17T04:56:52.271Z,6.17
2023-03-17T04:57:54.062Z,6.15
2023-03-17T04:58:55.822Z,6.19
2023-03-17T04:59:57.790Z,6.20
2023-03-17T05:00:59.629Z,6.23
2023-03-17T05:02:02.476Z,6.23
2023-03-17T05:03:09.073Z,6.32
2023-03-17T05:04:30.733Z,6.26
2023-03-17T05:05:34.059Z,6.29
2023-03-17T05:06:37.368Z,6.30
2023-03-17T05:07:39.080Z,6.31
2023-03-17T05:08:41.231Z,6.26
2023-03-17T05:09:43.180Z,6.32
2023-03-17T05:10:44.975Z,6.33
2023-03-17T05:11:47.049Z,6.36
2023-03-17T05:12:48.785Z,6.34
2023-03-17T05:13:50.499Z,6.36
2023-03-17T05:14:52.275Z,6.39
2023-03-17T05:15:55.751Z,6.34
2023-03-17T05:16:57.502Z,6.35
2023-03-17T05:17:59.304Z,6.37
2023-03-17T05:19:01.100Z,6.40
2023-03-17T05:20:03.105Z,6.45
2023-03-17T05:21:07.754Z,6.44
2023-03-17T05:22:09.786Z,6.41
2023-03-17T05:23:12.423Z,6.46
2023-03-17T05:24:14.212Z,6.51
2023-03-17T05:25:17.037Z,6.52
2023-03-17T05:26:18.884Z,6.55
2023-03-17T05:27:21.590Z,6.53
2023-03-17T05:28:25.084Z,6.51
2023-03-17T05:29:27.128Z,6.56
2023-03-17T05:30:29.160Z,6.55
2023-03-17T05:31:31.715Z,6.57
2023-03-17T05:32:33.471Z,6.57
2023-03-17T05:33:37.280Z,6.59
2023-03-17T05:34:39.036Z,6.62
2023-03-17T05:35:41.869Z,6.66
2023-03-17T05:36:44.747Z,6.66
2023-03-17T05:37:47.120Z,6.61
2023-03-17T05:38:48.864Z,6.69
2023-03-17T05:39:50.864Z,6.69
2023-03-17T05:40:53.029Z,6.76
2023-03-17T05:41:54.717Z,6.72
2023-03-17T05:42:56.963Z,6.83
2023-03-17T05:43:58.771Z,6.86
2023-03-17T05:45:00.479Z,6.88
2023-03-17T05:46:02.324Z,6.86
2023-03-17T05:47:08.152Z,6.82
2023-03-17T05:48:09.925Z,6.96
2023-03-17T05:49:11.654Z,6.97
2023-03-17T05:50:14.075Z,7.00
2023-03-17T05:51:15.975Z,7.07
2023-03-17T05:52:18.467Z,7.06
2023-03-17T05:53:20.163Z,6.95
2023-03-17T05:54:22.612Z,7.18
2023-03-17T05:55:24.421Z,7.20
2023-03-17T05:56:33.397Z,7.20
2023-03-17T05:57:35.604Z,7.27
2023-03-17T05:58:37.378Z,7.26
2023-03-17T05:59:39.083Z,7.25
2023-03-17T06:00:41.022Z,7.26
2023-03-17T06:01:42.952Z,7.25
2023-03-17T06:02:44.953Z,7.42
2023-03-17T06:03:47.287Z,7.46
2023-03-17T06:04:49.060Z,7.49
2023-03-17T06:05:50.843Z,7.48
2023-03-17T06:06:52.556Z,7.54
2023-03-17T06:07:57.056Z,7.60
2023-03-17T06:08:58.759Z,7.67
2023-03-17T06:10:00.629Z,7.85
2023-03-17T06:11:02.633Z,7.92
2023-03-17T06:12:05.139Z,7.96
2023-03-17T06:13:07.466Z,8.05
2023-03-17T06:14:09.198Z,8.06
2023-03-17T06:15:11.049Z,8.14
2023-03-17T06:16:13.117Z,8.19
2023-03-17T06:17:15.005Z,8.36
2023-03-17T06:18:16.841Z,8.38
2023-03-17T06:19:19.171Z,8.55
2023-03-17T06:20:21.170Z,8.63
2023-03-17T06:21:22.863Z,8.77
2023-03-17T06:22:24.566Z,8.95
2023-03-17T06:23:26.380Z,9.13
2023-03-17T06:24:28.101Z,9.28
2023-03-17T06:25:30.213Z,9.42
2023-03-17T06:26:32.138Z,9.50
2023-03-17T06:27:33.968Z,9.58
2023-03-17T06:28:35.887Z,9.45
2023-03-17T06:29:39.099Z,9.52
2023-03-17T06:30:41.062Z,9.70
2023-03-17T06:31:43.328Z,9.98
2023-03-17T06:32:45.290Z,10.28
2023-03-17T06:33:47.176Z,10.40
2023-03-17T06:34:48.986Z,10.58
2023-03-17T06:35:51.806Z,10.71
2023-03-17T06:36:54.122Z,10.78
2023-03-17T06:37:56.145Z,10.86
2023-03-17T06:38:59.220Z,11.10
2023-03-17T06:40:01.282Z,11.25
2023-03-17T06:41:03.508Z,11.52
2023-03-17T06:42:06.398Z,11.81
2023-03-17T06:43:08.201Z,12.07
2023-03-17T06:44:10.113Z,12.22
2023-03-17T06:45:12.523Z,12.35
2023-03-17T06:46:14.276Z,12.69
2023-03-17T06:47:15.984Z,12.75
2023-03-17T06:48:18.085Z,12.74
2023-03-17T06:49:19.858Z,12.74
2023-03-17T06:50:21.689Z,12.91
2023-03-17T06:51:23.442Z,13.27
2023-03-17T06:52:25.447Z,13.67
2023-03-17T06:53:27.618Z,13.92
2023-03-17T06:54:29.577Z,14.29
2023-03-17T06:55:32.231Z,14.57
2023-03-17T06:56:34.218Z,14.69
2023-03-17T06:57:36.654Z,15.11
2023-03-17T06:58:38.349Z,15.28
2023-03-17T06:59:40.500Z,15.35
2023-03-17T07:00:42.274Z,15.45
2023-03-17T07:01:44.379Z,15.39
2023-03-17T07:02:46.289Z,15.68
2023-03-17T07:03:48.192Z,15.87
2023-03-17T07:04:49.995Z,15.97
2023-03-17T07:05:52.779Z,16.03
2023-03-17T07:06:54.697Z,16.28
2023-03-17T07:07:56.739Z,16.62
2023-03-17T07:09:00.936Z,16.82
2023-03-17T07:10:04.081Z,16.75
2023-03-17T07:11:05.893Z,16.70
2023-03-17T07:12:10.452Z,16.66
2023-03-17T07:13:12.366Z,16.57
2023-03-17T07:14:14.058Z,16.55
2023-03-17T07:15:17.331Z,16.54
2023-03-17T07:16:21.152Z,16.43
2023-03-17T07:17:23.006Z,16.46
2023-03-17T07:18:24.702Z,16.38
2023-03-17T07:19:27.410Z,16.29
2023-03-17T07:20:29.190Z,16.28
2023-03-17T07:21:31.052Z,16.15
2023-03-17T07:22:33.106Z,16.08
2023-03-17T07:23:35.171Z,16.03
2023-03-17T07:24:36.868Z,15.81
2023-03-17T07:25:39.328Z,15.94
2023-03-17T07:26:41.233Z,16.00
2023-03-17T07:27:43.239Z,15.97
2023-03-17T07:28:44.970Z,16.02
2023-03-17T07:29:46.855Z,15.95
2023-03-17T07:30:49.944Z,15.96
2023-03-17T07:31:51.766Z,16.05
2023-03-17T07:32:53.987Z,16.14
2023-03-17T07:33:57.537Z,16.28
2023-03-17T07:34:59.514Z,16.27
2023-03-17T07:36:02.185Z,16.47
2023-03-17T07:37:05.370Z,16.44
2023-03-17T07:38:07.237Z,16.32
2023-03-17T07:39:11.501Z,16.35
2023-03-17T07:40:13.900Z,16.42
2023-03-17T07:41:15.661Z,16.52
2023-03-17T07:42:17.813Z,16.41
2023-03-17T07:43:20.178Z,16.44
2023-03-17T07:44:23.254Z,16.49
2023-03-17T07:45:25.213Z,16.79
2023-03-17T07:46:27.067Z,17.01
2023-03-17T07:47:28.857Z,16.84
2023-03-17T07:48:31.989Z,16.95
2023-03-17T07:49:41.164Z,17.00
2023-03-17T07:50:44.487Z,17.10
2023-03-17T07:51:46.843Z,17.27
2023-03-17T07:52:48.612Z,16.92
2023-03-17T07:53:50.339Z,16.97
2023-03-17T07:54:52.310Z,17.12
2023-03-17T07:55:54.448Z,17.18
2023-03-17T07:56:56.491Z,17.23
2023-03-17T07:57:58.568Z,17.33
2023-03-17T07:59:00.334Z,17.35
2023-03-17T08:00:02.481Z,17.36
2023-03-17T08:01:05.156Z,17.43
2023-03-17T08:02:07.365Z,17.48
2023-03-17T08:03:10.908Z,17.53
2023-03-17T08:04:13.401Z,17.62
2023-03-17T08:05:15.303Z,17.59
2023-03-17T08:06:17.108Z,17.51
2023-03-17T08:07:19.528Z,17.58
2023-03-17T08:08:22.243Z,17.72
2023-03-17T08:09:24.349Z,17.83
2023-03-17T08:10:26.526Z,17.68
2023-03-17T08:11:29.535Z,17.69
2023-03-17T08:12:31.653Z,17.69
2023-03-17T08:13:34.651Z,17.69
2023-03-17T08:14:36.456Z,17.66
2023-03-17T08:15:38.617Z,17.72
2023-03-17T08:16:40.444Z,17.73
2023-03-17T08:17:42.429Z,17.37
2023-03-17T08:18:44.253Z,17.51
2023-03-17T08:19:46.019Z,17.66
2023-03-17T08:20:47.815Z,17.88
2023-03-17T08:21:49.563Z,17.97
2023-03-17T08:22:51.526Z,18.15
2023-03-17T08:23:56.269Z,18.26
2023-03-17T08:24:58.754Z,18.37
2023-03-17T08:26:03.330Z,18.54
2023-03-17T08:27:05.233Z,18.47
2023-03-17T08:28:07.079Z,18.13
2023-03-17T08:29:09.803Z,17.91
2023-03-17T08:30:12.919Z,17.66
2023-03-17T08:31:18.182Z,17.70
2023-03-17T08:32:19.973Z,17.79
2023-03-17T08:33:22.504Z,18.08
2023-03-17T08:34:24.572Z,18.33
2023-03-17T08:35:26.930Z,18.68
2023-03-17T08:36:29.604Z,18.71
2023-03-17T08:37:31.591Z,18.84
2023-03-17T08:38:33.791Z,18.93
2023-03-17T08:39:36.374Z,19.03
2023-03-17T08:40:40.063Z,19.36
2023-03-17T08:41:42.276Z,19.64
2023-03-17T08:42:44.797Z,19.59
2023-03-17T08:43:47.938Z,19.73
2023-03-17T08:44:50.083Z,19.85
2023-03-17T08:45:51.826Z,19.91
2023-03-17T08:46:53.833Z,20.02
2023-03-17T08:47:56.037Z,20.10
2023-03-17T08:48:59.126Z,20.16
2023-03-17T08:50:01.200Z,20.27
2023-03-17T08:51:04.739Z,20.21
2023-03-17T08:52:06.500Z,20.32
2023-03-17T08:53:08.563Z,20.47
2023-03-17T08:54:11.508Z,20.74
2023-03-17T08:55:15.873Z,20.88
2023-03-17T08:56:17.687Z,20.77
2023-03-17T08:57:19.874Z,20.58
2023-03-17T08:58:21.629Z,20.54
2023-03-17T08:59:23.450Z,20.55
2023-03-17T09:00:25.147Z,20.56
2023-03-17T09:01:27.640Z,20.48
2023-03-17T09:02:29.666Z,20.68
2023-03-17T09:03:32.849Z,20.91
2023-03-17T09:04:38.951Z,21.21
2023-03-17T09:05:42.867Z,21.41
2023-03-17T09:07:01.861Z,21.47
2023-03-17T09:08:04.604Z,21.50
2023-03-17T09:09:07.037Z,21.70
2023-03-17T09:10:09.890Z,21.92
2023-03-17T09:11:14.881Z,22.13
2023-03-17T09:12:17.240Z,22.40
2023-03-17T09:13:19.290Z,22.68
2023-03-17T09:14:24.980Z,22.58
2023-03-17T09:15:26.783Z,22.70
2023-03-17T09:16:28.880Z,22.80
2023-03-17T09:17:30.767Z,23.08
2023-03-17T09:18:33.221Z,23.30
2023-03-17T09:19:34.977Z,23.15
2023-03-17T09:20:37.447Z,22.90
2023-03-17T09:21:39.146Z,23.15
2023-03-17T09:22:41.485Z,23.53
2023-03-17T09:23:44.459Z,23.52
2023-03-17T09:24:46.906Z,23.65
2023-03-17T09:25:48.605Z,23.64
2023-03-17T09:26:50.530Z,23.71
2023-03-17T09:27:52.278Z,24.19
2023-03-17T09:28:54.629Z,24.16
2023-03-17T09:29:56.507Z,24.07
2023-03-17T09:30:59.746Z,23.98
2023-03-17T09:32:01.701Z,23.75
2023-03-17T09:33:05.072Z,23.51
2023-03-17T09:34:06.831Z,23.34
2023-03-17T09:35:09.872Z,23.16
2023-03-17T09:36:12.178Z,22.99
2023-03-17T09:37:13.949Z,22.77
2023-03-17T09:38:15.742Z,22.39
2023-03-17T09:39:17.473Z,22.10
2023-03-17T09:40:22.589Z,21.61
2023-03-17T09:41:34.405Z,21.25
2023-03-17T09:43:03.129Z,20.49
2023-03-17T09:44:13.928Z,19.65
2023-03-17T09:45:33.871Z,19.47
2023-03-17T09:46:54.858Z,18.98
2023-03-17T09:47:59.491Z,18.79
2023-03-17T09:49:51.806Z,18.40
2023-03-17T09:51:05.296Z,17.86
2023-03-17T09:52:13.462Z,17.62
2023-03-17T09:53:22.503Z,17.55
2023-03-17T09:54:32.695Z,17.42
2023-03-17T09:55:37.019Z,17.21
2023-03-17T09:56:43.540Z,16.78
2023-03-17T09:57:45.459Z,16.50
2023-03-17T09:58:58.220Z,16.37
2023-03-17T10:00:12.193Z,16.39
2023-03-17T10:01:13.956Z,16.37
2023-03-17T10:02:34.179Z,16.20
2023-03-17T10:03:37.674Z,15.97
2023-03-17T10:04:42.423Z,15.99
2023-03-17T10:05:45.047Z,16.01
2023-03-17T10:06:47.799Z,15.85
2023-03-17T10:08:32.996Z,15.60
2023-03-17T10:09:43.418Z,15.40
2023-03-17T10:10:54.918Z,15.36
2023-03-17T10:12:22.451Z,15.09
2023-03-17T10:13:27.400Z,15.00
2023-03-17T10:14:51.654Z,14.93
2023-03-17T10:16:03.573Z,14.79
2023-03-17T10:17:15.592Z,14.81
2023-03-17T10:18:18.684Z,14.78
2023-03-17T10:19:39.291Z,14.82
2023-03-17T10:20:55.104Z,14.77
2023-03-17T10:22:03.142Z,14.73
2023-03-17T10:23:07.716Z,14.82
2023-03-17T10:24:10.955Z,14.84
2023-03-17T10:25:19.158Z,14.82
2023-03-17T10:26:32.030Z,14.83
2023-03-17T10:27:37.398Z,14.80
2023-03-17T10:28:40.241Z,14.77
2023-03-17T10:29:42.263Z,14.79
2023-03-17T10:30:44.119Z,14.77
2023-03-17T10:31:45.913Z,14.52
2023-03-17T10:32:51.837Z,14.60
2023-03-17T10:33:54.521Z,14.50
2023-03-17T10:34:57.323Z,14.52
2023-03-17T10:36:09.634Z,14.58
2023-03-17T10:37:18.533Z,14.66
2023-03-17T10:38:23.420Z,14.57
2023-03-17T10:39:25.269Z,14.47
2023-03-17T10:40:31.215Z,14.55
2023-03-17T10:41:36.752Z,14.44
2023-03-17T10:42:51.886Z,14.16
2023-03-17T10:43:53.764Z,13.72
2023-03-17T10:45:08.607Z,13.68
2023-03-17T10:46:25.944Z,13.47
2023-03-17T10:47:30.518Z,13.48
2023-03-17T10:48:37.723Z,13.32
2023-03-17T10:49:39.868Z,13.20
2023-03-17T10:50:41.584Z,13.30
2023-03-17T10:51:46.608Z,13.37
2023-03-17T10:52:53.796Z,13.21
2023-03-17T10:53:55.524Z,13.30
2023-03-17T10:55:05.864Z,13.41
2023-03-17T10:56:10.747Z,13.49
2023-03-17T10:57:14.484Z,13.55
2023-03-17T10:58:19.875Z,13.68
2023-03-17T11:00:35.501Z,13.50
2023-03-17T11:01:46.637Z,13.60
2023-03-17T11:02:58.856Z,13.74
2023-03-17T11:04:02.842Z,13.81
2023-03-17T11:05:17.955Z,13.90
2023-03-17T11:06:31.232Z,14.01
2023-03-17T11:07:40.340Z,14.23
2023-03-17T11:08:45.758Z,14.30
2023-03-17T11:09:55.107Z,14.40
2023-03-17T11:10:57.091Z,14.43
2023-03-17T11:12:05.838Z,14.45
2023-03-17T11:13:08.553Z,14.48
2023-03-17T11:14:13.982Z,14.56
2023-03-17T11:15:18.120Z,14.70
2023-03-17T11:16:24.297Z,14.71
2023-03-17T11:17:39.322Z,14.81
2023-03-17T11:18:41.133Z,14.94
2023-03-17T11:20:21.403Z,15.00
2023-03-17T11:21:32.050Z,15.08
2023-03-17T11:23:02.393Z,15.02
2023-03-17T11:24:26.102Z,14.89
2023-03-17T11:25:29.576Z,14.84
2023-03-17T11:26:43.086Z,14.86
2023-03-17T11:27:55.166Z,14.77
2023-03-17T11:29:17.627Z,14.76
2023-03-17T11:30:38.277Z,14.78
2023-03-17T11:32:07.800Z,14.72
2023-03-17T11:33:29.904Z,14.55
2023-03-17T11:34:34.660Z,14.68
2023-03-17T11:36:13.585Z,14.79
2023-03-17T11:37:27.414Z,14.86
2023-03-17T11:38:31.633Z,14.92
2023-03-17T11:39:56.529Z,14.94
2023-03-17T11:41:04.972Z,14.88
2023-03-17T11:42:12.361Z,14.59
2023-03-17T11:43:32.854Z,14.49
2023-03-17T11:44:58.155Z,14.55
2023-03-17T11:46:18.756Z,14.57
2023-03-17T11:47:56.493Z,14.70
2023-03-17T11:49:12.536Z,14.61
2023-03-17T11:50:23.435Z,14.48
2023-03-17T11:51:43.303Z,14.52
2023-03-17T11:52:58.310Z,14.52
2023-03-17T11:54:08.160Z,14.66
2023-03-17T11:55:22.533Z,14.77
2023-03-17T11:56:38.300Z,14.85
2023-03-17T11:58:03.434Z,14.80
2023-03-17T11:59:27.123Z,14.95
2023-03-17T12:00:34.016Z,15.03
2023-03-17T12:02:04.889Z,15.00
2023-03-17T12:03:27.668Z,15.14
2023-03-17T12:04:40.260Z,15.20
2023-03-17T12:05:45.495Z,15.15
2023-03-17T12:06:52.600Z,15.12
2023-03-17T12:08:12.161Z,15.06
2023-03-17T12:09:44.715Z,15.12
2023-03-17T12:10:51.761Z,15.11
2023-03-17T12:11:55.893Z,15.19
2023-03-17T12:13:02.602Z,15.21
2023-03-17T12:14:19.268Z,15.28
2023-03-17T12:15:47.394Z,15.37
2023-03-17T12:17:00.813Z,15.34
2023-03-17T12:18:33.049Z,15.00
2023-03-17T12:19:41.884Z,14.99
2023-03-17T12:21:08.340Z,15.02
2023-03-17T12:22:28.544Z,14.92
2023-03-17T12:23:42.273Z,14.91
2023-03-17T12:24:54.751Z,14.92
2023-03-17T12:26:06.974Z,14.97
2023-03-17T12:27:14.211Z,14.98
2023-03-17T12:28:20.420Z,15.03
2023-03-17T12:29:41.043Z,15.05
2023-03-17T12:31:05.915Z,15.05
2023-03-17T12:32:20.049Z,15.09
2023-03-17T12:33:51.974Z,15.14
2023-03-17T12:34:58.989Z,15.17
2023-03-17T12:36:03.934Z,15.18
2023-03-17T12:37:05.879Z,15.21
2023-03-17T12:38:35.998Z,15.19
2023-03-17T12:39:41.350Z,15.12
2023-03-17T12:41:18.404Z,15.03
2023-03-17T12:42:58.984Z,15.00
2023-03-17T12:44:03.422Z,14.92
2023-03-17T12:45:11.392Z,14.96
2023-03-17T12:46:25.073Z,15.02
2023-03-17T12:47:33.508Z,15.04
2023-03-17T12:49:13.558Z,15.06
2023-03-17T12:50:38.552Z,15.08
2023-03-17T12:51:52.815Z,15.06
2023-03-17T12:53:33.406Z,14.98
2023-03-17T12:54:37.634Z,14.88
2023-03-17T12:55:40.082Z,14.90
2023-03-17T12:56:47.400Z,14.92
2023-03-17T12:58:02.201Z,14.86
2023-03-17T12:59:09.555Z,14.85
2023-03-17T13:00:27.186Z,14.73
2023-03-17T13:01:40.885Z,14.81
2023-03-17T13:02:49.671Z,14.77
2023-03-17T13:04:05.696Z,14.77
2023-03-17T13:05:13.943Z,14.64
2023-03-17T13:06:21.333Z,14.67
2023-03-17T13:07:27.165Z,14.64
2023-03-17T13:08:32.090Z,14.69
2023-03-17T13:09:34.906Z,14.74
2023-03-17T13:10:38.115Z,14.77
2023-03-17T13:11:42.874Z,14.80
2023-03-17T13:12:44.732Z,14.83
2023-03-17T13:13:49.634Z,14.90
2023-03-17T13:14:52.122Z,14.85
2023-03-17T13:15:57.458Z,14.82
2023-03-17T13:17:28.952Z,14.85
2023-03-17T13:18:34.222Z,14.86
2023-03-17T13:19:54.802Z,14.80
2023-03-17T13:20:56.667Z,14.82
2023-03-17T13:22:02.029Z,14.77
2023-03-17T13:23:14.689Z,14.77
2023-03-17T13:24:16.383Z,14.82
2023-03-17T13:25:37.053Z,14.88
2023-03-17T13:26:51.668Z,14.95
2023-03-17T13:27:54.388Z,14.72
2023-03-17T13:29:03.518Z,14.84
2023-03-17T13:30:37.788Z,14.84
2023-03-17T13:31:39.677Z,14.78
2023-03-17T13:32:41.570Z,14.67
2023-03-17T13:33:46.599Z,14.50
2023-03-17T13:34:52.966Z,14.46
2023-03-17T13:36:19.472Z,14.35
2023-03-17T13:37:49.701Z,14.34
2023-03-17T13:39:15.014Z,14.24
2023-03-17T13:40:38.458Z,14.00
2023-03-17T13:42:17.687Z,13.84
2023-03-17T13:43:43.641Z,13.61
2023-03-17T13:45:13.334Z,13.57
2023-03-17T13:46:34.499Z,13.40
2023-03-17T13:47:42.571Z,13.33
2023-03-17T13:48:44.631Z,13.40
2023-03-17T13:49:51.107Z,13.41
2023-03-17T13:51:22.195Z,13.36
2023-03-17T13:52:48.000Z,13.30
2023-03-17T13:53:54.320Z,13.05
2023-03-17T13:55:06.082Z,13.16
2023-03-17T13:56:16.673Z,13.08
2023-03-17T13:57:28.608Z,13.11
2023-03-17T13:58:33.949Z,13.07
2023-03-17T13:59:56.327Z,13.10
2023-03-17T14:01:03.862Z,13.15
2023-03-17T14:02:18.562Z,13.14
2023-03-17T14:03:34.445Z,13.11
2023-03-17T14:04:52.902Z,13.11
2023-03-17T14:05:55.881Z,13.06
2023-03-17T14:07:05.471Z,13.08
2023-03-17T14:08:37.743Z,13.06
2023-03-17T14:09:42.233Z,13.06
2023-03-17T14:10:52.592Z,13.10
2023-03-17T14:11:56.175Z,13.16
2023-03-17T14:13:07.039Z,13.14
2023-03-17T14:14:33.403Z,13.08
2023-03-17T14:15:42.161Z,12.80
2023-03-17T14:16:51.492Z,12.85
2023-03-17T14:18:17.456Z,12.68
2023-03-17T14:19:26.717Z,12.64
2023-03-17T14:20:29.074Z,12.55
2023-03-17T14:21:34.234Z,12.40
2023-03-17T14:22:45.597Z,12.33
2023-03-17T14:23:59.353Z,12.30
2023-03-17T14:25:01.974Z,12.27
2023-03-17T14:26:04.237Z,12.28